sensor_id;sensor_type;location;lat;lon;timestamp;P1;durP1;ratioP1;P2;durP2;ratioP2
24435;SDS011;12616;52.470;13.436;2022-12-24T00:01:52;20.08;;;13.13;;
24435;SDS011;12616;52.470;13.436;2022-12-24T00:04:20;17.63;;;11.48;;
24435;SDS011;12616;52.470;13.436;2022-12-24T00:06:47;19.75;;;12.18;;
24435;SDS011;12616;52.470;13.436;2022-12-24T00:09:15;21.77;;;11.90;;
24435;SDS011;12616;52.470;13.436;2022-12-24T00:11:42;17.58;;;11.30;;
24435;SDS011;12616;52.470;13.436;2022-12-24T00:14:12;20.70;;;11.90;;
24435;SDS011;12616;52.470;13.436;2022-12-24T00:16:40;15.88;;;9.95;;
24435;SDS011;12616;52.470;13.436;2022-12-24T00:19:15;18.25;;;11.15;;
24435;SDS011;12616;52.470;13.436;2022-12-24T00:21:45;18.73;;;11.05;;
24435;SDS011;12616;52.470;13.436;2022-12-24T00:24:12;16.40;;;10.48;;
24435;SDS011;12616;52.470;13.436;2022-12-24T00:26:41;17.42;;;10.55;;
24435;SDS011;12616;52.470;13.436;2022-12-24T00:29:09;17.27;;;10.52;;
24435;SDS011;12616;52.470;13.436;2022-12-24T00:31:40;17.20;;;11.45;;
24435;SDS011;12616;52.470;13.436;2022-12-24T00:34:07;19.27;;;10.65;;
24435;SDS011;12616;52.470;13.436;2022-12-24T00:36:40;18.17;;;9.88;;
24435;SDS011;12616;52.470;13.436;2022-12-24T00:39:09;16.23;;;9.10;;
24435;SDS011;12616;52.470;13.436;2022-12-24T00:41:36;15.98;;;10.55;;
24435;SDS011;12616;52.470;13.436;2022-12-24T00:44:06;16.33;;;9.88;;
24435;SDS011;12616;52.470;13.436;2022-12-24T00:46:34;14.95;;;10.00;;
24435;SDS011;12616;52.470;13.436;2022-12-24T00:49:02;16.67;;;10.55;;
24435;SDS011;12616;52.470;13.436;2022-12-24T00:51:38;13.95;;;10.27;;
24435;SDS011;12616;52.470;13.436;2022-12-24T00:54:26;15.80;;;9.98;;
24435;SDS011;12616;52.470;13.436;2022-12-24T00:56:59;18.65;;;10.73;;
24435;SDS011;12616;52.470;13.436;2022-12-24T00:59:33;20.10;;;11.18;;
24435;SDS011;12616;52.470;13.436;2022-12-24T01:02:04;15.70;;;10.13;;
24435;SDS011;12616;52.470;13.436;2022-12-24T01:04:42;14.15;;;9.80;;
24435;SDS011;12616;52.470;13.436;2022-12-24T01:07:31;15.30;;;10.48;;
24435;SDS011;12616;52.470;13.436;2022-12-24T01:09:59;16.00;;;10.85;;
24435;SDS011;12616;52.470;13.436;2022-12-24T01:12:40;16.45;;;10.68;;
24435;SDS011;12616;52.470;13.436;2022-12-24T01:15:08;15.98;;;10.68;;
24435;SDS011;12616;52.470;13.436;2022-12-24T01:17:46;17.55;;;10.77;;
24435;SDS011;12616;52.470;13.436;2022-12-24T01:20:19;20.08;;;10.80;;
24435;SDS011;12616;52.470;13.436;2022-12-24T01:22:49;16.58;;;10.95;;
24435;SDS011;12616;52.470;13.436;2022-12-24T01:25:17;17.65;;;11.90;;
24435;SDS011;12616;52.470;13.436;2022-12-24T01:27:44;17.88;;;10.70;;
24435;SDS011;12616;52.470;13.436;2022-12-24T01:30:14;22.00;;;11.35;;
24435;SDS011;12616;52.470;13.436;2022-12-24T01:32:41;17.17;;;10.60;;
24435;SDS011;12616;52.470;13.436;2022-12-24T01:35:08;20.95;;;11.75;;
24435;SDS011;12616;52.470;13.436;2022-12-24T01:37:36;17.45;;;10.65;;
24435;SDS011;12616;52.470;13.436;2022-12-24T01:40:06;17.70;;;12.07;;
24435;SDS011;12616;52.470;13.436;2022-12-24T01:42:51;16.90;;;10.50;;
24435;SDS011;12616;52.470;13.436;2022-12-24T01:45:41;13.52;;;10.75;;
24435;SDS011;12616;52.470;13.436;2022-12-24T01:48:15;16.90;;;10.60;;
24435;SDS011;12616;52.470;13.436;2022-12-24T01:50:46;18.67;;;9.98;;
24435;SDS011;12616;52.470;13.436;2022-12-24T01:53:15;16.80;;;12.00;;
24435;SDS011;12616;52.470;13.436;2022-12-24T01:55:44;18.08;;;11.75;;
24435;SDS011;12616;52.470;13.436;2022-12-24T01:58:12;16.70;;;12.25;;
24435;SDS011;12616;52.470;13.436;2022-12-24T02:00:41;21.10;;;12.23;;
24435;SDS011;12616;52.470;13.436;2022-12-24T02:03:08;19.23;;;12.00;;
24435;SDS011;12616;52.470;13.436;2022-12-24T02:05:36;18.45;;;10.75;;
24435;SDS011;12616;52.470;13.436;2022-12-24T02:08:11;17.42;;;10.73;;
24435;SDS011;12616;52.470;13.436;2022-12-24T02:10:38;19.85;;;12.05;;
24435;SDS011;12616;52.470;13.436;2022-12-24T02:13:07;18.13;;;11.43;;
24435;SDS011;12616;52.470;13.436;2022-12-24T02:15:36;18.50;;;11.23;;
24435;SDS011;12616;52.470;13.436;2022-12-24T02:18:13;17.45;;;10.60;;
24435;SDS011;12616;52.470;13.436;2022-12-24T02:24:20;17.85;;;12.00;;
24435;SDS011;12616;52.470;13.436;2022-12-24T02:27:06;15.95;;;11.00;;
24435;SDS011;12616;52.470;13.436;2022-12-24T02:30:11;15.05;;;10.38;;
24435;SDS011;12616;52.470;13.436;2022-12-24T02:35:45;17.88;;;11.02;;
24435;SDS011;12616;52.470;13.436;2022-12-24T02:38:18;17.95;;;11.50;;
24435;SDS011;12616;52.470;13.436;2022-12-24T02:40:50;15.45;;;10.88;;
24435;SDS011;12616;52.470;13.436;2022-12-24T02:43:22;21.98;;;11.95;;
24435;SDS011;12616;52.470;13.436;2022-12-24T02:45:54;17.30;;;11.98;;
24435;SDS011;12616;52.470;13.436;2022-12-24T02:48:23;20.45;;;11.70;;
24435;SDS011;12616;52.470;13.436;2022-12-24T02:50:53;17.95;;;10.82;;
24435;SDS011;12616;52.470;13.436;2022-12-24T02:53:22;22.17;;;11.95;;
24435;SDS011;12616;52.470;13.436;2022-12-24T02:55:51;16.30;;;10.88;;
24435;SDS011;12616;52.470;13.436;2022-12-24T02:58:31;26.45;;;13.50;;
24435;SDS011;12616;52.470;13.436;2022-12-24T03:01:11;17.58;;;12.07;;
24435;SDS011;12616;52.470;13.436;2022-12-24T03:03:54;18.95;;;11.52;;
24435;SDS011;12616;52.470;13.436;2022-12-24T03:06:31;19.45;;;12.65;;
24435;SDS011;12616;52.470;13.436;2022-12-24T03:09:05;16.63;;;12.00;;
24435;SDS011;12616;52.470;13.436;2022-12-24T03:11:39;22.15;;;12.85;;
24435;SDS011;12616;52.470;13.436;2022-12-24T03:14:13;21.73;;;12.55;;
24435;SDS011;12616;52.470;13.436;2022-12-24T03:16:43;20.55;;;12.27;;
24435;SDS011;12616;52.470;13.436;2022-12-24T03:19:11;22.65;;;12.43;;
24435;SDS011;12616;52.470;13.436;2022-12-24T03:21:38;18.48;;;12.38;;
24435;SDS011;12616;52.470;13.436;2022-12-24T03:24:07;16.50;;;11.77;;
24435;SDS011;12616;52.470;13.436;2022-12-24T03:26:35;18.50;;;12.23;;
24435;SDS011;12616;52.470;13.436;2022-12-24T03:29:04;17.17;;;12.20;;
24435;SDS011;12616;52.470;13.436;2022-12-24T03:31:40;21.00;;;11.90;;
24435;SDS011;12616;52.470;13.436;2022-12-24T03:34:10;24.13;;;14.50;;
24435;SDS011;12616;52.470;13.436;2022-12-24T03:36:38;20.63;;;13.77;;
24435;SDS011;12616;52.470;13.436;2022-12-24T03:39:05;26.25;;;13.45;;
24435;SDS011;12616;52.470;13.436;2022-12-24T03:41:33;19.45;;;11.23;;
24435;SDS011;12616;52.470;13.436;2022-12-24T03:44:00;23.42;;;12.68;;
24435;SDS011;12616;52.470;13.436;2022-12-24T03:46:27;23.20;;;13.60;;
24435;SDS011;12616;52.470;13.436;2022-12-24T03:48:55;17.50;;;12.30;;
24435;SDS011;12616;52.470;13.436;2022-12-24T03:51:23;17.15;;;11.48;;
24435;SDS011;12616;52.470;13.436;2022-12-24T03:53:50;22.50;;;12.57;;
24435;SDS011;12616;52.470;13.436;2022-12-24T03:56:18;19.73;;;12.60;;
24435;SDS011;12616;52.470;13.436;2022-12-24T03:58:45;17.55;;;12.57;;
24435;SDS011;12616;52.470;13.436;2022-12-24T04:01:12;19.17;;;12.20;;
24435;SDS011;12616;52.470;13.436;2022-12-24T04:03:39;23.83;;;14.05;;
24435;SDS011;12616;52.470;13.436;2022-12-24T04:06:09;19.30;;;13.27;;
24435;SDS011;12616;52.470;13.436;2022-12-24T04:08:37;21.67;;;11.80;;
24435;SDS011;12616;52.470;13.436;2022-12-24T04:11:05;21.13;;;13.27;;
24435;SDS011;12616;52.470;13.436;2022-12-24T04:13:33;19.42;;;13.02;;
24435;SDS011;12616;52.470;13.436;2022-12-24T04:16:01;21.20;;;12.70;;
24435;SDS011;12616;52.470;13.436;2022-12-24T04:18:29;19.40;;;12.38;;
24435;SDS011;12616;52.470;13.436;2022-12-24T04:20:56;20.80;;;11.98;;
24435;SDS011;12616;52.470;13.436;2022-12-24T04:23:25;19.60;;;12.27;;
24435;SDS011;12616;52.470;13.436;2022-12-24T04:25:52;17.38;;;12.15;;
24435;SDS011;12616;52.470;13.436;2022-12-24T04:28:19;25.67;;;13.35;;
24435;SDS011;12616;52.470;13.436;2022-12-24T04:30:45;17.35;;;12.40;;
24435;SDS011;12616;52.470;13.436;2022-12-24T04:33:12;19.02;;;11.75;;
24435;SDS011;12616;52.470;13.436;2022-12-24T04:35:39;20.65;;;12.32;;
24435;SDS011;12616;52.470;13.436;2022-12-24T04:38:06;16.30;;;11.10;;
24435;SDS011;12616;52.470;13.436;2022-12-24T04:40:35;15.45;;;12.20;;
24435;SDS011;12616;52.470;13.436;2022-12-24T04:43:02;20.50;;;11.98;;
24435;SDS011;12616;52.470;13.436;2022-12-24T04:45:29;17.17;;;11.38;;
24435;SDS011;12616;52.470;13.436;2022-12-24T04:47:57;18.75;;;12.23;;
24435;SDS011;12616;52.470;13.436;2022-12-24T04:50:24;17.63;;;13.20;;
24435;SDS011;12616;52.470;13.436;2022-12-24T04:52:51;16.35;;;11.52;;
24435;SDS011;12616;52.470;13.436;2022-12-24T04:55:17;22.70;;;12.38;;
24435;SDS011;12616;52.470;13.436;2022-12-24T04:57:46;18.02;;;11.55;;
24435;SDS011;12616;52.470;13.436;2022-12-24T05:00:13;16.88;;;11.90;;
24435;SDS011;12616;52.470;13.436;2022-12-24T05:02:40;17.95;;;11.25;;
24435;SDS011;12616;52.470;13.436;2022-12-24T05:05:07;19.73;;;11.98;;
24435;SDS011;12616;52.470;13.436;2022-12-24T05:07:34;18.40;;;11.35;;
24435;SDS011;12616;52.470;13.436;2022-12-24T05:10:01;15.80;;;10.75;;
24435;SDS011;12616;52.470;13.436;2022-12-24T05:12:28;19.17;;;11.10;;
24435;SDS011;12616;52.470;13.436;2022-12-24T05:15:00;17.52;;;11.73;;
24435;SDS011;12616;52.470;13.436;2022-12-24T05:17:41;17.48;;;11.15;;
24435;SDS011;12616;52.470;13.436;2022-12-24T05:20:11;18.95;;;12.00;;
24435;SDS011;12616;52.470;13.436;2022-12-24T05:22:43;19.25;;;11.82;;
24435;SDS011;12616;52.470;13.436;2022-12-24T05:25:30;18.52;;;11.75;;
24435;SDS011;12616;52.470;13.436;2022-12-24T05:28:19;19.58;;;12.00;;
24435;SDS011;12616;52.470;13.436;2022-12-24T05:30:49;20.55;;;12.68;;
24435;SDS011;12616;52.470;13.436;2022-12-24T05:33:19;22.45;;;12.10;;
24435;SDS011;12616;52.470;13.436;2022-12-24T05:35:47;19.33;;;11.20;;
24435;SDS011;12616;52.470;13.436;2022-12-24T05:38:16;18.67;;;12.60;;
24435;SDS011;12616;52.470;13.436;2022-12-24T05:40:45;22.10;;;12.25;;
24435;SDS011;12616;52.470;13.436;2022-12-24T05:43:15;21.38;;;12.38;;
24435;SDS011;12616;52.470;13.436;2022-12-24T05:45:42;19.92;;;13.07;;
24435;SDS011;12616;52.470;13.436;2022-12-24T05:48:13;17.58;;;12.32;;
24435;SDS011;12616;52.470;13.436;2022-12-24T05:50:40;16.30;;;11.27;;
24435;SDS011;12616;52.470;13.436;2022-12-24T05:53:07;22.92;;;13.63;;
24435;SDS011;12616;52.470;13.436;2022-12-24T05:55:34;21.83;;;12.45;;
24435;SDS011;12616;52.470;13.436;2022-12-24T05:58:01;24.98;;;12.20;;
24435;SDS011;12616;52.470;13.436;2022-12-24T06:00:28;20.60;;;12.15;;
24435;SDS011;12616;52.470;13.436;2022-12-24T06:02:55;19.23;;;13.07;;
24435;SDS011;12616;52.470;13.436;2022-12-24T06:05:23;19.23;;;12.25;;
24435;SDS011;12616;52.470;13.436;2022-12-24T06:07:50;20.90;;;12.32;;
24435;SDS011;12616;52.470;13.436;2022-12-24T06:10:16;19.88;;;13.60;;
24435;SDS011;12616;52.470;13.436;2022-12-24T06:12:43;18.13;;;12.65;;
24435;SDS011;12616;52.470;13.436;2022-12-24T06:15:10;17.30;;;12.10;;
24435;SDS011;12616;52.470;13.436;2022-12-24T06:17:37;19.23;;;13.10;;
24435;SDS011;12616;52.470;13.436;2022-12-24T06:20:05;20.52;;;14.00;;
24435;SDS011;12616;52.470;13.436;2022-12-24T06:22:34;18.42;;;12.55;;
24435;SDS011;12616;52.470;13.436;2022-12-24T06:25:01;21.42;;;12.52;;
24435;SDS011;12616;52.470;13.436;2022-12-24T06:27:28;20.13;;;12.90;;
24435;SDS011;12616;52.470;13.436;2022-12-24T06:29:55;23.02;;;13.43;;
24435;SDS011;12616;52.470;13.436;2022-12-24T06:32:21;22.75;;;13.40;;
24435;SDS011;12616;52.470;13.436;2022-12-24T06:34:48;22.05;;;12.35;;
24435;SDS011;12616;52.470;13.436;2022-12-24T06:37:15;17.92;;;11.55;;
24435;SDS011;12616;52.470;13.436;2022-12-24T06:39:45;20.08;;;13.07;;
24435;SDS011;12616;52.470;13.436;2022-12-24T06:42:12;22.45;;;13.35;;
24435;SDS011;12616;52.470;13.436;2022-12-24T06:44:39;23.23;;;14.43;;
24435;SDS011;12616;52.470;13.436;2022-12-24T06:47:05;21.83;;;12.30;;
24435;SDS011;12616;52.470;13.436;2022-12-24T06:49:32;19.50;;;13.73;;
24435;SDS011;12616;52.470;13.436;2022-12-24T06:51:59;24.35;;;13.32;;
24435;SDS011;12616;52.470;13.436;2022-12-24T06:54:26;20.27;;;13.02;;
24435;SDS011;12616;52.470;13.436;2022-12-24T06:56:54;24.45;;;12.60;;
24435;SDS011;12616;52.470;13.436;2022-12-24T06:59:21;23.77;;;12.52;;
24435;SDS011;12616;52.470;13.436;2022-12-24T07:01:48;22.13;;;13.45;;
24435;SDS011;12616;52.470;13.436;2022-12-24T07:04:15;24.98;;;13.45;;
24435;SDS011;12616;52.470;13.436;2022-12-24T07:06:42;19.63;;;13.07;;
24435;SDS011;12616;52.470;13.436;2022-12-24T07:09:10;19.98;;;13.70;;
24435;SDS011;12616;52.470;13.436;2022-12-24T07:11:37;25.08;;;12.82;;
24435;SDS011;12616;52.470;13.436;2022-12-24T07:14:06;23.75;;;13.85;;
24435;SDS011;12616;52.470;13.436;2022-12-24T07:16:32;24.42;;;14.35;;
24435;SDS011;12616;52.470;13.436;2022-12-24T07:18:59;20.70;;;13.20;;
24435;SDS011;12616;52.470;13.436;2022-12-24T07:21:26;20.60;;;13.90;;
24435;SDS011;12616;52.470;13.436;2022-12-24T07:23:53;24.77;;;13.32;;
24435;SDS011;12616;52.470;13.436;2022-12-24T07:26:20;17.77;;;12.05;;
24435;SDS011;12616;52.470;13.436;2022-12-24T07:28:46;19.00;;;11.98;;
24435;SDS011;12616;52.470;13.436;2022-12-24T07:31:15;21.63;;;12.65;;
24435;SDS011;12616;52.470;13.436;2022-12-24T07:33:42;21.55;;;12.82;;
24435;SDS011;12616;52.470;13.436;2022-12-24T07:36:09;19.73;;;12.55;;
24435;SDS011;12616;52.470;13.436;2022-12-24T07:38:41;23.52;;;13.07;;
24435;SDS011;12616;52.470;13.436;2022-12-24T07:41:08;17.30;;;11.88;;
24435;SDS011;12616;52.470;13.436;2022-12-24T07:43:35;24.52;;;12.85;;
24435;SDS011;12616;52.470;13.436;2022-12-24T07:46:02;22.80;;;13.13;;
24435;SDS011;12616;52.470;13.436;2022-12-24T07:48:31;21.90;;;13.63;;
24435;SDS011;12616;52.470;13.436;2022-12-24T07:50:58;21.15;;;11.85;;
24435;SDS011;12616;52.470;13.436;2022-12-24T07:53:41;24.52;;;13.10;;
24435;SDS011;12616;52.470;13.436;2022-12-24T07:56:11;24.98;;;15.00;;
24435;SDS011;12616;52.470;13.436;2022-12-24T07:58:39;22.27;;;13.50;;
24435;SDS011;12616;52.470;13.436;2022-12-24T08:01:06;23.40;;;14.23;;
24435;SDS011;12616;52.470;13.436;2022-12-24T08:03:35;18.65;;;11.98;;
24435;SDS011;12616;52.470;13.436;2022-12-24T08:06:02;21.65;;;12.77;;
24435;SDS011;12616;52.470;13.436;2022-12-24T08:08:28;20.65;;;12.60;;
24435;SDS011;12616;52.470;13.436;2022-12-24T08:10:59;23.90;;;13.98;;
24435;SDS011;12616;52.470;13.436;2022-12-24T08:13:27;21.33;;;12.73;;
24435;SDS011;12616;52.470;13.436;2022-12-24T08:15:54;18.48;;;11.70;;
24435;SDS011;12616;52.470;13.436;2022-12-24T08:18:22;28.08;;;12.20;;
24435;SDS011;12616;52.470;13.436;2022-12-24T08:20:50;21.58;;;12.93;;
24435;SDS011;12616;52.470;13.436;2022-12-24T08:23:17;23.17;;;14.75;;
24435;SDS011;12616;52.470;13.436;2022-12-24T08:25:45;21.85;;;13.68;;
24435;SDS011;12616;52.470;13.436;2022-12-24T08:28:13;20.90;;;12.63;;
24435;SDS011;12616;52.470;13.436;2022-12-24T08:30:41;22.50;;;13.70;;
24435;SDS011;12616;52.470;13.436;2022-12-24T08:33:08;21.30;;;13.93;;
24435;SDS011;12616;52.470;13.436;2022-12-24T08:35:35;21.92;;;13.10;;
24435;SDS011;12616;52.470;13.436;2022-12-24T08:38:04;22.10;;;13.13;;
24435;SDS011;12616;52.470;13.436;2022-12-24T08:40:31;27.02;;;15.93;;
24435;SDS011;12616;52.470;13.436;2022-12-24T08:43:00;22.15;;;13.50;;
24435;SDS011;12616;52.470;13.436;2022-12-24T08:45:27;26.55;;;15.27;;
24435;SDS011;12616;52.470;13.436;2022-12-24T08:47:54;22.58;;;13.77;;
24435;SDS011;12616;52.470;13.436;2022-12-24T08:50:21;21.70;;;12.38;;
24435;SDS011;12616;52.470;13.436;2022-12-24T08:52:48;24.20;;;14.80;;
24435;SDS011;12616;52.470;13.436;2022-12-24T08:55:16;23.85;;;15.63;;
24435;SDS011;12616;52.470;13.436;2022-12-24T08:57:43;27.42;;;13.55;;
24435;SDS011;12616;52.470;13.436;2022-12-24T09:00:27;25.48;;;15.77;;
24435;SDS011;12616;52.470;13.436;2022-12-24T09:03:11;22.10;;;12.98;;
24435;SDS011;12616;52.470;13.436;2022-12-24T09:40:14;22.40;;;13.50;;
24435;SDS011;12616;52.470;13.436;2022-12-24T09:42:50;28.27;;;14.63;;
24435;SDS011;12616;52.470;13.436;2022-12-24T09:45:19;24.50;;;13.63;;
24435;SDS011;12616;52.470;13.436;2022-12-24T09:47:51;24.50;;;12.95;;
24435;SDS011;12616;52.470;13.436;2022-12-24T09:50:29;21.08;;;13.10;;
24435;SDS011;12616;52.470;13.436;2022-12-24T09:53:03;24.63;;;13.88;;
24435;SDS011;12616;52.470;13.436;2022-12-24T09:55:39;24.65;;;14.98;;
24435;SDS011;12616;52.470;13.436;2022-12-24T09:58:09;26.15;;;14.07;;
24435;SDS011;12616;52.470;13.436;2022-12-24T10:00:44;27.33;;;14.25;;
24435;SDS011;12616;52.470;13.436;2022-12-24T10:03:12;21.20;;;14.02;;
24435;SDS011;12616;52.470;13.436;2022-12-24T10:05:42;26.42;;;15.38;;
24435;SDS011;12616;52.470;13.436;2022-12-24T10:08:18;25.02;;;15.95;;
24435;SDS011;12616;52.470;13.436;2022-12-24T10:10:53;23.73;;;14.02;;
24435;SDS011;12616;52.470;13.436;2022-12-24T10:13:27;30.05;;;14.82;;
24435;SDS011;12616;52.470;13.436;2022-12-24T10:16:02;26.33;;;15.35;;
24435;SDS011;12616;52.470;13.436;2022-12-24T10:18:34;28.55;;;16.38;;
24435;SDS011;12616;52.470;13.436;2022-12-24T10:21:11;24.75;;;14.02;;
24435;SDS011;12616;52.470;13.436;2022-12-24T10:23:41;28.65;;;14.65;;
24435;SDS011;12616;52.470;13.436;2022-12-24T10:26:14;23.17;;;14.77;;
24435;SDS011;12616;52.470;13.436;2022-12-24T10:28:49;28.13;;;16.33;;
24435;SDS011;12616;52.470;13.436;2022-12-24T10:31:19;25.65;;;16.40;;
24435;SDS011;12616;52.470;13.436;2022-12-24T10:33:52;24.80;;;14.90;;
24435;SDS011;12616;52.470;13.436;2022-12-24T10:36:24;28.27;;;14.30;;
24435;SDS011;12616;52.470;13.436;2022-12-24T10:38:53;25.73;;;14.48;;
24435;SDS011;12616;52.470;13.436;2022-12-24T10:41:21;21.02;;;12.65;;
24435;SDS011;12616;52.470;13.436;2022-12-24T10:43:50;24.23;;;14.32;;
24435;SDS011;12616;52.470;13.436;2022-12-24T10:46:18;21.65;;;13.98;;
24435;SDS011;12616;52.470;13.436;2022-12-24T10:48:50;19.38;;;12.02;;
24435;SDS011;12616;52.470;13.436;2022-12-24T10:51:20;17.08;;;12.50;;
24435;SDS011;12616;52.470;13.436;2022-12-24T10:53:58;19.63;;;12.43;;
24435;SDS011;12616;52.470;13.436;2022-12-24T10:56:29;15.80;;;10.60;;
24435;SDS011;12616;52.470;13.436;2022-12-24T10:58:56;19.25;;;11.80;;
24435;SDS011;12616;52.470;13.436;2022-12-24T11:04:12;15.02;;;10.18;;
24435;SDS011;12616;52.470;13.436;2022-12-24T11:06:50;18.02;;;9.30;;
24435;SDS011;12616;52.470;13.436;2022-12-24T11:09:19;14.00;;;10.77;;
24435;SDS011;12616;52.470;13.436;2022-12-24T11:11:49;12.77;;;9.48;;
24435;SDS011;12616;52.470;13.436;2022-12-24T11:14:16;13.98;;;10.07;;
24435;SDS011;12616;52.470;13.436;2022-12-24T11:16:48;12.68;;;8.68;;
24435;SDS011;12616;52.470;13.436;2022-12-24T11:19:18;11.30;;;8.27;;
24435;SDS011;12616;52.470;13.436;2022-12-24T11:21:56;11.45;;;8.60;;
24435;SDS011;12616;52.470;13.436;2022-12-24T11:24:25;12.95;;;8.75;;
24435;SDS011;12616;52.470;13.436;2022-12-24T11:26:55;14.95;;;7.63;;
24435;SDS011;12616;52.470;13.436;2022-12-24T11:30:16;10.82;;;8.15;;
24435;SDS011;12616;52.470;13.436;2022-12-24T11:32:47;12.00;;;7.57;;
24435;SDS011;12616;52.470;13.436;2022-12-24T11:35:16;10.88;;;8.50;;
24435;SDS011;12616;52.470;13.436;2022-12-24T11:37:45;13.15;;;8.52;;
24435;SDS011;12616;52.470;13.436;2022-12-24T11:40:18;12.13;;;8.38;;
24435;SDS011;12616;52.470;13.436;2022-12-24T11:42:48;11.02;;;8.57;;
24435;SDS011;12616;52.470;13.436;2022-12-24T11:45:18;12.68;;;8.27;;
24435;SDS011;12616;52.470;13.436;2022-12-24T11:47:47;10.40;;;7.65;;
24435;SDS011;12616;52.470;13.436;2022-12-24T11:50:22;16.42;;;9.07;;
24435;SDS011;12616;52.470;13.436;2022-12-24T11:52:51;13.55;;;8.57;;
24435;SDS011;12616;52.470;13.436;2022-12-24T11:55:32;10.50;;;7.40;;
24435;SDS011;12616;52.470;13.436;2022-12-24T11:58:10;9.95;;;7.20;;
24435;SDS011;12616;52.470;13.436;2022-12-24T12:00:43;9.60;;;7.70;;
24435;SDS011;12616;52.470;13.436;2022-12-24T12:03:16;12.40;;;7.78;;
24435;SDS011;12616;52.470;13.436;2022-12-24T12:05:54;11.25;;;7.97;;
24435;SDS011;12616;52.470;13.436;2022-12-24T12:08:23;10.55;;;7.05;;
24435;SDS011;12616;52.470;13.436;2022-12-24T12:10:53;10.65;;;7.22;;
24435;SDS011;12616;52.470;13.436;2022-12-24T12:13:26;11.20;;;7.88;;
24435;SDS011;12616;52.470;13.436;2022-12-24T12:16:01;11.13;;;7.43;;
24435;SDS011;12616;52.470;13.436;2022-12-24T12:18:39;8.43;;;7.10;;
24435;SDS011;12616;52.470;13.436;2022-12-24T12:21:10;10.15;;;7.45;;
24435;SDS011;12616;52.470;13.436;2022-12-24T12:23:43;11.00;;;7.97;;
24435;SDS011;12616;52.470;13.436;2022-12-24T12:26:14;10.52;;;7.80;;
24435;SDS011;12616;52.470;13.436;2022-12-24T12:28:48;9.20;;;6.47;;
24435;SDS011;12616;52.470;13.436;2022-12-24T12:31:18;7.85;;;7.15;;
24435;SDS011;12616;52.470;13.436;2022-12-24T12:33:48;8.60;;;6.40;;
24435;SDS011;12616;52.470;13.436;2022-12-24T12:36:22;8.23;;;7.40;;
24435;SDS011;12616;52.470;13.436;2022-12-24T12:38:53;8.60;;;6.60;;
24435;SDS011;12616;52.470;13.436;2022-12-24T12:41:25;12.20;;;8.00;;
24435;SDS011;12616;52.470;13.436;2022-12-24T12:44:11;8.30;;;6.80;;
24435;SDS011;12616;52.470;13.436;2022-12-24T12:47:03;9.60;;;7.13;;
24435;SDS011;12616;52.470;13.436;2022-12-24T12:49:48;9.93;;;6.73;;
24435;SDS011;12616;52.470;13.436;2022-12-24T12:52:21;11.50;;;8.00;;
24435;SDS011;12616;52.470;13.436;2022-12-24T12:55:01;11.40;;;8.07;;
24435;SDS011;12616;52.470;13.436;2022-12-24T12:57:41;10.83;;;7.90;;
24435;SDS011;12616;52.470;13.436;2022-12-24T13:00:14;11.88;;;7.18;;
24435;SDS011;12616;52.470;13.436;2022-12-24T13:02:49;9.73;;;7.68;;
24435;SDS011;12616;52.470;13.436;2022-12-24T13:08:33;16.08;;;7.70;;
24435;SDS011;12616;52.470;13.436;2022-12-24T13:11:28;12.00;;;7.93;;
24435;SDS011;12616;52.470;13.436;2022-12-24T13:14:18;11.87;;;7.57;;
24435;SDS011;12616;52.470;13.436;2022-12-24T13:17:00;20.77;;;7.43;;
24435;SDS011;12616;52.470;13.436;2022-12-24T13:19:57;14.70;;;7.10;;
24435;SDS011;12616;52.470;13.436;2022-12-24T13:22:36;13.60;;;7.13;;
24435;SDS011;12616;52.470;13.436;2022-12-24T13:25:03;15.17;;;7.30;;
24435;SDS011;12616;52.470;13.436;2022-12-24T13:27:31;16.75;;;7.85;;
24435;SDS011;12616;52.470;13.436;2022-12-24T13:30:00;14.30;;;6.70;;
24435;SDS011;12616;52.470;13.436;2022-12-24T13:32:38;7.50;;;6.50;;
24435;SDS011;12616;52.470;13.436;2022-12-24T13:35:30;14.03;;;8.00;;
24435;SDS011;12616;52.470;13.436;2022-12-24T13:44:13;12.55;;;7.35;;
24435;SDS011;12616;52.470;13.436;2022-12-24T13:46:45;13.38;;;7.60;;
24435;SDS011;12616;52.470;13.436;2022-12-24T13:49:18;21.83;;;7.97;;
24435;SDS011;12616;52.470;13.436;2022-12-24T13:51:50;16.92;;;7.93;;
24435;SDS011;12616;52.470;13.436;2022-12-24T13:54:29;15.30;;;6.80;;
24435;SDS011;12616;52.470;13.436;2022-12-24T13:56:57;19.83;;;8.52;;
24435;SDS011;12616;52.470;13.436;2022-12-24T13:59:33;12.05;;;7.10;;
24435;SDS011;12616;52.470;13.436;2022-12-24T14:02:01;12.17;;;6.40;;
24435;SDS011;12616;52.470;13.436;2022-12-24T14:04:31;17.73;;;6.95;;
24435;SDS011;12616;52.470;13.436;2022-12-24T14:07:01;23.90;;;8.00;;
24435;SDS011;12616;52.470;13.436;2022-12-24T14:09:30;13.82;;;7.05;;
24435;SDS011;12616;52.470;13.436;2022-12-24T14:12:14;29.20;;;6.90;;
24435;SDS011;12616;52.470;13.436;2022-12-24T14:14:58;20.98;;;7.55;;
24435;SDS011;12616;52.470;13.436;2022-12-24T14:18:00;19.95;;;6.53;;
24435;SDS011;12616;52.470;13.436;2022-12-24T14:20:28;24.58;;;7.88;;
24435;SDS011;12616;52.470;13.436;2022-12-24T14:22:57;19.92;;;7.85;;
24435;SDS011;12616;52.470;13.436;2022-12-24T14:25:25;19.83;;;7.53;;
24435;SDS011;12616;52.470;13.436;2022-12-24T14:27:53;20.00;;;8.18;;
24435;SDS011;12616;52.470;13.436;2022-12-24T14:30:25;18.77;;;7.35;;
24435;SDS011;12616;52.470;13.436;2022-12-24T14:32:53;10.88;;;7.13;;
24435;SDS011;12616;52.470;13.436;2022-12-24T14:35:26;13.20;;;6.13;;
24435;SDS011;12616;52.470;13.436;2022-12-24T14:38:06;24.05;;;7.45;;
24435;SDS011;12616;52.470;13.436;2022-12-24T14:40:40;25.67;;;7.13;;
24435;SDS011;12616;52.470;13.436;2022-12-24T14:43:18;27.48;;;9.00;;
24435;SDS011;12616;52.470;13.436;2022-12-24T14:45:52;15.70;;;7.63;;
24435;SDS011;12616;52.470;13.436;2022-12-24T14:48:26;24.02;;;12.57;;
24435;SDS011;12616;52.470;13.436;2022-12-24T14:51:07;22.90;;;10.02;;
24435;SDS011;12616;52.470;13.436;2022-12-24T14:53:47;20.17;;;9.73;;
24435;SDS011;12616;52.470;13.436;2022-12-24T14:56:25;19.77;;;10.98;;
24435;SDS011;12616;52.470;13.436;2022-12-24T14:58:52;20.85;;;10.00;;
24435;SDS011;12616;52.470;13.436;2022-12-24T15:01:20;20.95;;;10.10;;
24435;SDS011;12616;52.470;13.436;2022-12-24T15:04:01;27.60;;;12.80;;
24435;SDS011;12616;52.470;13.436;2022-12-24T15:06:32;32.05;;;12.65;;
24435;SDS011;12616;52.470;13.436;2022-12-24T15:09:00;27.30;;;13.77;;
24435;SDS011;12616;52.470;13.436;2022-12-24T15:11:27;21.98;;;11.20;;
24435;SDS011;12616;52.470;13.436;2022-12-24T15:13:54;24.90;;;12.23;;
24435;SDS011;12616;52.470;13.436;2022-12-24T15:16:24;24.17;;;11.50;;
24435;SDS011;12616;52.470;13.436;2022-12-24T15:18:54;25.67;;;11.07;;
24435;SDS011;12616;52.470;13.436;2022-12-24T15:21:27;21.73;;;11.65;;
24435;SDS011;12616;52.470;13.436;2022-12-24T15:23:57;27.77;;;11.40;;
24435;SDS011;12616;52.470;13.436;2022-12-24T15:26:24;29.20;;;12.00;;
24435;SDS011;12616;52.470;13.436;2022-12-24T15:28:53;22.00;;;13.00;;
24435;SDS011;12616;52.470;13.436;2022-12-24T15:31:23;22.88;;;11.75;;